»·PEaware :: SKY648 S59-KSZT

SKY648 :: S59-KSZT

FLIGHT INFORMATION

Flight Status: Arrived
Operator:
Sky High Charters
More flights by this operator :: More flights under this callsign
Pilot: Justin C. (30559)
Aircraft: BEECH AIRCRAFT A90-E90 KING AIR
(BE9L)
More flights by this aircraft type
Origin: S59 Libby
United States
Destination: KSZT Sandpoint
United States
More flights between these airports :: More routes between these airports
Route: +EYESE1 EYESE V448 CLASS
File this flight plan on PilotEdge
Remarks:
Altitude:
(Current/Filed)
12,000ft
Speed:
(Current/Filed)
180kts
Departed: 08-Aug-20 01:40 PM
Arrived: 08-Aug-20 02:16 PM
Distance/Time
Traveled:
43nm/0:35
Distance/Time
To Go:
Arrived

Flight Plot

Page will automatically refresh every two minutes.

Flight plan parsing failed; only flown route is shown


Map Options




Map Legend


Flown Route
Filed Route
Departure Airport
Arrival Airport
Navaid (VOR, NDB)
Fix

Horizontal Profiles

Position Reports

Time Latitude Longitude Heading Altitude Ground
Speed
08-Aug-20 13:27 48.284300 -115.488845 254 2599ft 0kts
08-Aug-20 13:28 48.284300 -115.488845 254 2599ft 0kts
08-Aug-20 13:29 48.284300 -115.488845 254 2599ft 0kts
08-Aug-20 13:30 48.284300 -115.488845 254 2599ft 0kts
08-Aug-20 13:31 48.284300 -115.488845 254 2599ft 0kts
08-Aug-20 13:32 48.284300 -115.488845 254 2599ft 0kts
08-Aug-20 13:33 48.284300 -115.488845 254 2599ft 0kts
08-Aug-20 13:34 48.284300 -115.488845 254 2599ft 0kts
08-Aug-20 13:35 48.285048 -115.489429 344 2596ft 10kts
08-Aug-20 13:36 48.288755 -115.490908 347 2587ft 15kts
08-Aug-20 13:37 48.290589 -115.491976 267 2582ft 0kts
08-Aug-20 13:38 48.290224 -115.492770 169 2582ft 0kts
08-Aug-20 13:39 48.287481 -115.491678 164 2587ft 78kts
08-Aug-20 13:40 48.258595 -115.480509 170 3894ft 110kts
08-Aug-20 13:41 48.230350 -115.469140 171 5524ft 106kts
08-Aug-20 13:42 48.201983 -115.457886 173 6954ft 108kts
08-Aug-20 13:43 48.172188 -115.446165 173 8283ft 110kts
08-Aug-20 13:44 48.142716 -115.434590 174 9488ft 111kts
08-Aug-20 13:45 48.111991 -115.422534 175 10566ft 116kts
08-Aug-20 13:46 48.080391 -115.410158 176 11580ft 118kts
08-Aug-20 13:47 48.044902 -115.396398 174 12002ft 156kts
08-Aug-20 13:48 48.001723 -115.395654 245 11996ft 156kts
08-Aug-20 13:49 47.987365 -115.458773 252 11997ft 165kts
08-Aug-20 13:50 47.974570 -115.525562 253 11996ft 168kts
08-Aug-20 13:51 47.961994 -115.593204 253 11995ft 169kts
08-Aug-20 13:52 47.950014 -115.657770 252 11998ft 169kts
08-Aug-20 13:53 47.937371 -115.725748 252 11999ft 170kts
08-Aug-20 13:54 47.924594 -115.794223 252 11999ft 170kts
08-Aug-20 13:55 47.911878 -115.862108 252 11999ft 170kts
08-Aug-20 13:56 47.899054 -115.930312 252 11999ft 170kts
08-Aug-20 13:57 47.886247 -115.998191 252 12001ft 170kts
08-Aug-20 13:58 47.873344 -116.066348 252 12000ft 171kts
08-Aug-20 13:59 47.860309 -116.134937 252 12000ft 170kts
08-Aug-20 14:00 47.874553 -116.207525 286 10773ft 193kts
08-Aug-20 14:01 47.894678 -116.281265 287 9268ft 191kts
08-Aug-20 14:02 47.914414 -116.353486 287 8415ft 181kts
08-Aug-20 14:03 47.933142 -116.422234 286 8412ft 178kts
08-Aug-20 14:04 47.951659 -116.490474 290 8408ft 173kts
08-Aug-20 14:05 47.979069 -116.554580 302 7168ft 195kts
08-Aug-20 14:06 48.006554 -116.617095 303 6908ft 162kts
08-Aug-20 14:07 48.029485 -116.669351 302 6921ft 159kts
08-Aug-20 14:08 48.055952 -116.729830 301 6914ft 183kts
08-Aug-20 14:09 48.098304 -116.749613 27 6846ft 207kts
08-Aug-20 14:10 48.146791 -116.704374 30 5997ft 193kts
08-Aug-20 14:11 48.190525 -116.664531 29 4976ft 183kts
08-Aug-20 14:12 48.230803 -116.623943 34 4026ft 150kts
08-Aug-20 14:13 48.263408 -116.593980 30 2985ft 130kts
08-Aug-20 14:14 48.288928 -116.570044 32 2280ft 98kts
08-Aug-20 14:15 48.300674 -116.560162 301 2133ft 0kts
08-Aug-20 14:16 48.299901 -116.561351 34 2132ft 0kts
08-Aug-20 14:17 48.299902 -116.561351 35 2132ft 0kts
08-Aug-20 14:18 48.299902 -116.561351 35 2132ft 0kts

Navigation Log

Ident Type
Flight plan parsing failed, navigation log unavailable